WetterOnline ( http://www.wetteronline.de )

Wetter aktuell Schmölln

Aktuelles Wetter: Chemnitz (420m)

6-stündlich | Neueste Meldungen
Ortszeit Temperatur Wetter
Do, 21.06. 8:00 22.0° C wolkenlos
Do, 21.06. 2:00 18.5° C wolkenlos
Mi, 20.06. 20:00 27.1° C bewölkt
Mi, 20.06. 14:00 26.3° C wolkig
Mi, 20.06. 8:00 18.5° C bewölkt
Mi, 20.06. 2:00 16.7° C wolkenlos
Di, 19.06. 20:00 20.4° C bedeckt
Di, 19.06. 14:00 22.2° C wolkig
Ortszeit Temperatur Wetter
Do, 21.06. 10:00 25.2° C wolkig
Do, 21.06. 9:50 25.2° C wolkig
Do, 21.06. 9:40 24.8° C wolkig
Do, 21.06. 9:30 24.2° C bewölkt
Do, 21.06. 9:20 24.2° C bewölkt
Do, 21.06. 9:10 24.9° C bewölkt
Do, 21.06. 9:00 24.2° C bewölkt
Do, 21.06. 8:30 22.6° C wolkig
Do, 21.06. 8:00 22.0° C wolkenlos
Do, 21.06. 7:30 20.3° C wolkenlos
Do, 21.06. 7:00 18.6° C wolkenlos
Ortszeit Relative Feuchte Sichtweite
Do, 21.06. 8:00 64% 23 km
Do, 21.06. 2:00 74% 28 km
Mi, 20.06. 20:00 49% 30 km
Mi, 20.06. 14:00 45% 27 km
Mi, 20.06. 8:00 73% 23 km
Mi, 20.06. 2:00 82% 21 km
Di, 19.06. 20:00 63% 55 km
Di, 19.06. 14:00 56% 24 km
Ortszeit Relative Feuchte Sichtweite
Do, 21.06. 10:00 50% 25 km
Do, 21.06. 9:50 50% -
Do, 21.06. 9:40 49% -
Do, 21.06. 9:30 51% 28 km
Do, 21.06. 9:20 51% -
Do, 21.06. 9:10 47% -
Do, 21.06. 9:00 52% 28 km
Do, 21.06. 8:30 58% 26 km
Do, 21.06. 8:00 64% 23 km
Do, 21.06. 7:30 68% 22 km
Do, 21.06. 7:00 75% 23 km
Ortszeit Niederschlagsmenge Niederschlagsart
Do, 21.06. 8:00 0.0 l/m2 in 12 Std. -
Do, 21.06. 2:00 0.0 l/m2 in 6 Std. -
Mi, 20.06. 20:00 0.1 l/m2 in 12 Std. Sprühregen
Mi, 20.06. 14:00 0.0 l/m2 in 6 Std. -
Mi, 20.06. 8:00 0.0 l/m2 in 12 Std. -
Mi, 20.06. 2:00 0.0 l/m2 in 6 Std. -
Di, 19.06. 20:00 0.0 l/m2 in 12 Std. -
Di, 19.06. 14:00 0.0 l/m2 in 6 Std. -
Ortszeit Niederschlagsmenge Niederschlagsart
Do, 21.06. 10:00 0.0 l/m2 in 1 Std. -
Do, 21.06. 9:50 keine Meldung -
Do, 21.06. 9:40 keine Meldung -
Do, 21.06. 9:30 0.0 l/m2 in 1 Std. -
Do, 21.06. 9:20 keine Meldung -
Do, 21.06. 9:10 keine Meldung -
Do, 21.06. 9:00 0.0 l/m2 in 1 Std. -
Do, 21.06. 8:30 0.0 l/m2 in 1 Std. -
Do, 21.06. 8:00 0.0 l/m2 in 1 Std. -
Do, 21.06. 7:30 0.0 l/m2 in 1 Std. -
Do, 21.06. 7:00 0.0 l/m2 in 1 Std. -
Ortszeit Stärke Spitze Richtung
km/h Bft. km/h Grad Sektor
Do, 21.06. 8:00 15 3 20 220° SW
Do, 21.06. 2:00 11 2 18 210° SW
Mi, 20.06. 20:00 4 1 29 270° W
Mi, 20.06. 14:00 13 3 35 210° SW
Mi, 20.06. 8:00 7 2 14 110° O
Mi, 20.06. 2:00 6 1 15 200° S
Di, 19.06. 20:00 11 2 29 310° NW
Di, 19.06. 14:00 22 4 36 250° W
Ortszeit Stärke Spitze Richtung
km/h Bft. km/h Grad Sektor
Do, 21.06. 10:00 20 4 28 230° SW
Do, 21.06. 9:50 20 4 - 230° SW
Do, 21.06. 9:40 20 4 - 220° SW
Do, 21.06. 9:30 18 3 25 220° SW
Do, 21.06. 9:20 18 3 - 220° SW
Do, 21.06. 9:10 14 3 - 200° S
Do, 21.06. 9:00 17 3 24 220° SW
Do, 21.06. 8:30 17 3 20 220° SW
Do, 21.06. 8:00 15 3 20 220° SW
Do, 21.06. 7:30 14 3 18 210° SW
Do, 21.06. 7:00 13 3 17 210° SW
Ortszeit Untergrenze Bedeckung Gattung
total tief tief mittel hoch
Do, 21.06. 8:00 - 0/8 0/8 - - -
Do, 21.06. 2:00 - 0/8 0/8 - - -
Mi, 20.06. 20:00 1800 m 7/8 - - - -
Mi, 20.06. 14:00 1500 m 8/8 7/8 - - -
Mi, 20.06. 8:00 1380 m 7/8 7/8 - - -
Mi, 20.06. 2:00 - 0/8 0/8 - - -
Di, 19.06. 20:00 1470 m 8/8 8/8 - - -
Di, 19.06. 14:00 1500 m 6/8 7/8 - - -
Ortszeit Bedeckungsgrad in Achtel und Wolkenuntergrenze
Do, 21.06. 10:00 5(1500m) 6(2100m)
Do, 21.06. 9:50 5(1500m) 6(2100m)
Do, 21.06. 9:40 5(1500m) 6(2100m)
Do, 21.06. 9:30 2(1500m) 7(2100m)
Do, 21.06. 9:20 2(1500m) 7(2100m)
Do, 21.06. 9:10 7(2100m)
Do, 21.06. 9:00 6(1800m) 7(2100m)
Do, 21.06. 8:30 4(1800m) 5(7800m)
Do, 21.06. 8:00 keine Wolken
Do, 21.06. 7:30 keine Wolken
Do, 21.06. 7:00 keine Wolken
Ortszeit Luftdruck NN (hPa) Tendenz (hPa in 3 Std.)
Do, 21.06. 8:00 1013 - 1,2
Do, 21.06. 2:00 1016 - 0,7
Mi, 20.06. 20:00 1016 - 1,5
Mi, 20.06. 14:00 1020 - 1,5
Mi, 20.06. 8:00 1023 - 0,2
Mi, 20.06. 2:00 1024 + 0,3
Di, 19.06. 20:00 1023 + 0,4
Di, 19.06. 14:00 1022 - 0,2
Ortszeit Luftdruck NN (hPa) Tendenz (hPa in 3 Std.)
Do, 21.06. 10:00 1011 - 2,0
Do, 21.06. 9:50 1011 keine Meldung
Do, 21.06. 9:40 1011 keine Meldung
Do, 21.06. 9:30 1011 - 1,6
Do, 21.06. 9:20 1011 keine Meldung
Do, 21.06. 9:10 1011 keine Meldung
Do, 21.06. 9:00 1012 - 1,6
Do, 21.06. 8:30 1012 - 1,4
Do, 21.06. 8:00 1013 - 1,2
Do, 21.06. 7:30 1013 - 1,5
Do, 21.06. 7:00 1014 - 1,6
Ortszeit Schneehöhe (cm)
Do, 21.06. 8:00 -
Do, 21.06. 2:00 -
Mi, 20.06. 20:00 -
Mi, 20.06. 14:00 -
Mi, 20.06. 8:00 -
Mi, 20.06. 2:00 -
Di, 19.06. 20:00 -
Di, 19.06. 14:00 -
Ortszeit Schneehöhe (cm)
Do, 21.06. 10:00 -
Do, 21.06. 9:50 -
Do, 21.06. 9:40 -
Do, 21.06. 9:30 -
Do, 21.06. 9:20 -
Do, 21.06. 9:10 -
Do, 21.06. 9:00 -
Do, 21.06. 8:30 -
Do, 21.06. 8:00 -
Do, 21.06. 7:30 -
Do, 21.06. 7:00 -
Link zu dieser Seite / Seite empfehlen

Das Wetter in ...